Latest Weather Observations for Sydney Airport

IDN60801

Issued at 2:32 pm EST Sunday 5 April 2020 (issued every 10 minutes, with the page automatically refreshed every 10 minutes)

About weather observations | Map of weather stations | Latest weather observations for NSW | Other Formats
Station Details ID: 066037 Name: SYDNEY AIRPORT AMO Lat: -33.95 Lon: 151.17 Height: 6.0 m
Data from the previous 72 hours. | See also: Recent months at Sydney Airport
Date/Time
EST
Temp
°C
App
Temp
°C
Dew
Point
°C
Rel
Hum
%
Delta-T
°C
Wind Press
QNH
hPa
Press
MSL
hPa
Rain since
9am
mm
Dir  Spd
km/h
Gust
km/h
Spd
kts
Gust
kts
05/02:00pm 24.2 19.5 5.1 29 9.6 WNW 19 28 10 15 1011.2 1011.2 0.0
05/01:30pm 25.0 19.0 5.2 28 10.0 WNW 26 35 14 19 1011.4 1011.4 0.0
05/01:00pm 23.6 17.3 4.0 28 9.6 W 26 33 14 18 1011.7 1011.7 0.0
05/12:30pm 23.8 18.0 4.2 28 9.7 W 24 33 13 18 1012.0 1012.0 0.0
05/12:00pm 23.1 16.7 5.1 31 9.0 W 28 35 15 19 1012.4 1012.4 0.0
05/11:30am 21.8 17.0 5.7 35 8.1 W 20 35 11 19 1013.0 1013.0 0.0
05/11:00am 22.7 17.0 6.5 35 8.3 WNW 26 33 14 18 1013.4 1013.4 0.0
05/10:30am 21.3 16.0 5.2 35 8.0 WNW 22 30 12 16 1013.6 1013.6 0.0
05/10:00am 20.8 15.2 7.1 41 7.0 W 26 37 14 20 1013.9 1013.9 0.0
05/09:30am 20.0 14.8 7.1 43 6.6 NW 24 30 13 16 1014.1 1014.1 0.0
05/09:00am 19.4 13.7 6.8 44 6.3 NW 26 35 14 19 1014.1 1014.1 0.2
05/08:30am 18.2 12.7 6.1 45 6.0 NW 24 30 13 16 1014.0 1014.0 0.2
05/08:00am 18.1 14.2 6.9 48 5.6 NW 17 22 9 12 1014.2 1014.2 0.2
05/07:30am 16.8 12.9 7.2 53 4.8 NNW 17 24 9 13 1013.9 1013.9 0.2
05/07:00am 15.7 11.4 7.2 57 4.2 NW 19 30 10 16 1013.6 1013.6 0.2
05/06:30am 14.9 11.0 7.2 60 3.8 NW 17 20 9 11 1013.0 1013.0 0.2
05/06:00am 14.9 10.6 7.2 60 3.8 NW 19 24 10 13 1012.5 1012.5 0.2
05/05:30am 13.7 10.0 7.9 68 2.9 NNW 17 17 9 9 1012.3 1012.3 0.2
05/05:00am 13.5 10.3 6.8 64 3.2 N 13 17 7 9 1011.8 1011.8 0.2
05/04:30am 13.8 11.5 7.3 65 3.2 NNW 9 11 5 6 1011.6 1011.6 0.2
05/04:00am 14.2 11.8 7.0 62 3.5 NW 9 13 5 7 1011.5 1011.5 0.2
05/03:30am 14.3 12.4 6.9 61 3.6 NNW 6 7 3 4 1011.3 1011.3 0.2
05/03:00am 15.2 12.9 7.3 59 3.9 N 9 11 5 6 1011.0 1011.0 0.2
05/03:30am 14.9 12.0 6.7 58 4.0 N 11 13 6 7 1010.9 1010.9 0.2
05/03:00am 15.9 12.3 6.6 54 4.6 NNW 15 17 8 9 1011.0 1011.0 0.2
05/02:30am 16.3 12.7 6.7 53 4.7 NNW 15 17 8 9 1010.7 1010.7 0.2
05/02:00am 15.7 12.5 7.0 56 4.3 N 13 15 7 8 1010.6 1010.6 0.2
05/01:30am 16.4 13.8 7.9 57 4.3 N 11 13 6 7 1010.5 1010.5 0.2
05/01:00am 17.3 14.0 6.5 49 5.3 NW 13 17 7 9 1010.3 1010.3 0.2
05/12:30am 17.7 15.4 7.4 51 5.2 NNW 9 11 5 6 1010.1 1010.1 0.2
05/12:00am 17.2 14.9 7.3 52 5.0 W 9 9 5 5 1010.0 1010.0 0.2
 
Date/Time
EST
Temp
°C
App
Temp
°C
Dew
Point
°C
Rel
Hum
%
Delta-T
°C
Wind Press
QNH
hPa
Press
MSL
hPa
Rain since
9am
mm
Dir  Spd
km/h
Gust
km/h
Spd
kts
Gust
kts
04/11:30pm 18.1 15.6 6.6 47 5.7 W 9 13 5 7 1009.8 1009.8 0.2
04/11:00pm 18.2 15.3 6.7 47 5.7 W 11 17 6 9 1009.6 1009.6 0.2
04/10:30pm 18.5 14.7 5.7 43 6.3 WNW 15 19 8 10 1009.4 1009.4 0.2
04/10:00pm 19.3 13.8 5.7 41 6.7 WNW 24 30 13 16 1008.8 1008.8 0.2
04/09:30pm 19.7 15.1 5.4 39 7.0 WNW 19 22 10 12 1008.5 1008.5 0.2
04/09:00pm 19.8 14.1 4.7 37 7.3 WNW 24 33 13 18 1007.7 1007.7 0.2
04/08:30pm 20.1 13.3 5.0 37 7.4 WNW 30 39 16 21 1007.0 1007.0 0.2
04/08:00pm 20.7 13.4 4.7 35 7.8 WNW 32 43 17 23 1006.3 1006.3 0.2
04/07:30pm 21.2 13.6 3.9 32 8.3 WNW 33 44 18 24 1005.8 1005.8 0.2
04/07:00pm 21.8 14.2 3.9 31 8.7 WNW 33 43 18 23 1005.0 1005.0 0.2
04/06:35pm 22.0 13.3 4.1 31 8.7 WNW 39 59 21 32 1004.3 1004.3 0.2
04/06:30pm 22.2 13.4 3.8 30 8.9 WNW 39 54 21 29 1004.2 1004.2 0.2
04/06:00pm 22.8 14.1 3.9 29 9.2 WNW 39 54 21 29 1003.5 1003.5 0.2
04/05:30pm 23.8 13.8 4.2 28 9.7 WNW 46 69 25 37 1002.6 1002.6 0.2
04/05:00pm 23.9 15.3 4.8 29 9.6 WNW 39 54 21 29 1002.0 1002.0 0.2
04/04:30pm 24.5 14.1 4.3 27 10.0 WNW 48 59 26 32 1001.8 1001.8 0.2
04/04:00pm 24.6 15.0 4.4 27 10.1 WNW 44 56 24 30 1001.4 1001.4 0.2
04/03:30pm 25.0 15.3 5.7 29 9.9 W 46 61 25 33 1001.1 1001.1 0.2
04/03:00pm 24.7 15.8 5.0 28 10.0 WNW 41 69 22 37 1000.8 1000.8 0.2
04/02:48pm 24.6 16.2 5.4 29 9.7 WNW 39 57 21 31 1000.5 1000.5 0.2
04/02:30pm 25.0 14.3 4.7 27 10.2 WNW 50 63 27 34 1000.2 1000.2 0.2
04/02:00pm 25.3 14.7 5.0 27 10.3 WNW 50 65 27 35 999.7 999.7 0.2
04/01:30pm 25.5 14.6 5.7 28 10.1 WNW 52 63 28 34 999.4 999.4 0.2
04/01:00pm 26.3 15.7 6.9 29 10.3 WNW 52 70 28 38 999.0 999.0 0.2
04/12:30pm 26.3 17.4 9.2 34 9.4 NW 46 65 25 35 998.8 998.8 0.2
04/12:08pm 26.5 18.4 10.2 36 9.1 NW 43 61 23 33 998.9 998.9 0.2
04/12:00pm 25.7 18.3 11.1 40 8.3 NW 41 52 22 28 999.0 999.0 0.2
04/11:30am 25.3 20.3 13.5 48 6.9 NW 32 44 17 24 998.9 998.9 0.0
04/11:00am 25.1 20.9 14.6 52 6.3 NW 30 39 16 21 998.9 998.9 0.0
04/10:30am 23.8 20.4 16.8 65 4.3 NNW 30 35 16 19 999.3 999.3 0.0
04/10:00am 22.2 19.5 17.6 75 2.9 NNW 28 33 15 18 999.3 999.3 0.0
04/09:30am 21.5 18.8 17.5 78 2.5 NW 28 37 15 20 999.5 999.5 0.0
04/09:00am 20.9 18.1 18.3 85 1.6 NNW 30 39 16 21 998.5 998.5 4.8
04/08:30am 20.5 18.8 19.0 91 0.9 N 26 30 14 16 997.9 997.9 4.8
04/08:00am 20.4 19.9 19.1 92 0.8 NNW 20 32 11 17 997.6 997.6 4.8
04/07:30am 20.4 17.4 19.1 92 0.8 N 33 44 18 24 997.2 997.2 4.4
04/07:00am 20.6 18.1 18.9 90 1.1 N 30 39 16 21 997.3 997.3 2.8
04/06:30am 21.1 17.9 18.1 83 1.9 N 32 41 17 22 997.0 997.0 1.8
04/06:00am 21.6 18.9 17.6 78 2.5 NNE 28 33 15 18 996.5 996.5 1.6
04/05:30am 21.7 19.6 18.1 80 2.2 N 26 33 14 18 996.8 996.8 1.6
04/05:00am 21.4 19.3 18.0 81 2.1 N 26 35 14 19 996.8 996.8 1.6
04/04:30am 21.5 18.9 17.9 80 2.2 NNE 28 35 15 19 996.8 996.8 1.6
04/04:00am 21.4 20.5 18.2 82 2.0 NNE 20 28 11 15 997.4 997.4 1.6
04/03:30am 20.8 19.9 18.2 85 1.6 N 20 26 11 14 998.3 998.3 1.6
04/03:00am 20.7 20.4 18.3 86 1.5 NNE 17 20 9 11 998.9 998.9 1.6
04/02:30am 21.0 20.1 18.2 84 1.7 N 20 28 11 15 999.5 999.5 1.6
04/02:00am 21.2 18.9 18.4 84 1.8 N 28 35 15 19 999.8 999.8 1.6
04/01:30am 21.1 18.0 18.5 85 1.6 N 32 39 17 21 1000.2 1000.2 1.6
04/01:00am 21.4 19.2 18.6 84 1.8 N 28 33 15 18 1000.6 1000.6 1.6
04/12:30am 21.5 19.3 18.7 84 1.8 NNE 28 35 15 19 1001.2 1001.2 1.6
04/12:00am 21.5 20.2 19.1 86 1.5 N 24 33 13 18 1001.6 1001.6 1.6
 
Date/Time
EST
Temp
°C
App
Temp
°C
Dew
Point
°C
Rel
Hum
%
Delta-T
°C
Wind Press
QNH
hPa
Press
MSL
hPa
Rain since
9am
mm
Dir  Spd
km/h
Gust
km/h
Spd
kts
Gust
kts
03/11:30pm 21.5 19.9 19.1 86 1.5 NNE 26 32 14 17 1002.4 1002.4 1.6
03/11:00pm 21.3 18.7 19.4 89 1.2 NNE 32 37 17 20 1002.7 1002.7 1.6
03/10:30pm 21.7 20.5 19.3 86 1.5 NNE 24 30 13 16 1003.2 1003.2 1.6
03/10:00pm 21.4 19.7 19.9 91 1.0 NNE 28 33 15 18 1003.5 1003.5 1.6
03/09:45pm 21.3 19.6 19.9 92 0.9 NNE 28 46 15 25 1003.4 1003.4 1.6
03/09:30pm 21.1 18.9 19.6 91 1.0 NNE 30 35 16 19 1003.5 1003.5 1.6
03/09:00pm 21.0 18.8 19.5 91 1.0 NNE 30 37 16 20 1003.9 1003.9 1.6
03/08:30pm 21.1 19.3 19.6 91 1.0 NNE 28 33 15 18 1004.1 1004.1 1.6
03/08:00pm 21.2 20.1 19.5 90 1.1 NNE 24 35 13 19 1004.0 1004.0 1.4
03/07:30pm 21.4 21.4 19.7 90 1.1 NNW 19 28 10 15 1004.4 1004.4 1.0
03/07:00pm 21.9 21.8 20.0 89 1.2 NNE 20 30 11 16 1004.6 1004.6 0.8
03/06:30pm 21.9 21.8 19.6 87 1.5 NNE 19 26 10 14 1004.8 1004.8 0.4
03/06:00pm 22.3 22.3 18.9 81 2.2 N 17 22 9 12 1004.9 1004.9 0.0
03/05:30pm 22.6 21.2 18.8 79 2.4 NNE 24 28 13 15 1004.8 1004.8 0.0
03/05:00pm 23.6 21.9 18.9 75 3.0 NNE 26 33 14 18 1004.9 1004.9 0.0
03/04:30pm 24.4 23.3 18.6 70 3.7 NNE 22 28 12 15 1005.2 1005.2 0.0
03/04:00pm 24.9 23.7 17.4 63 4.7 NNE 20 28 11 15 1005.5 1005.5 0.0
03/03:30pm 25.2 24.4 17.1 60 5.0 NNE 17 22 9 12 1005.8 1005.8 0.0
03/03:00pm 25.9 25.4 17.0 58 5.5 NNE 15 19 8 10 1006.1 1006.1 0.0
03/02:30pm 25.1 24.7 17.1 61 5.0 NNE 15 19 8 10 1006.8 1006.8 0.0
03/02:00pm 24.4 24.1 17.4 65 4.4 NNE 15 17 8 9 1007.2 1007.2 0.0
03/01:30pm 25.0 25.1 16.4 59 5.3 N 11 15 6 8 1007.7 1007.7 0.0
03/01:00pm 25.3 26.6 17.0 60 5.2 ESE 6 9 3 5 1008.7 1008.7 0.0
03/12:30pm 24.0 25.1 18.0 69 3.8 SE 9 11 5 6 1009.0 1009.0 0.0
03/12:00pm 25.1 26.7 17.8 64 4.6 SW 6 15 3 8 1009.8 1009.8 0.0
03/11:30am 23.6 26.4 18.0 71 3.5 CALM 0 2 0 1 1009.6 1009.6 0.0
03/11:00am 22.1 24.6 18.1 78 2.5 WNW 2 6 1 3 1009.7 1009.7 0.0
03/10:30am 21.8 24.4 17.6 77 2.6 CALM 0 0 0 0 1009.9 1009.9 0.0
03/10:00am 21.4 22.7 17.6 79 2.3 ENE 7 9 4 5 1009.8 1009.8 0.0
03/09:30am 19.8 22.1 16.8 83 1.8 CALM 0 4 0 2 1010.4 1010.4 0.0
03/09:00am 19.6 21.8 16.6 83 1.8 CALM 0 4 0 2 1010.4 1010.4 4.2
03/08:30am 19.0 19.8 17.3 90 1.0 ENE 9 11 5 6 1010.0 1010.0 4.2
03/08:00am 17.8 19.8 16.1 90 1.0 CALM 0 0 0 0 1010.3 1010.3 4.2
03/07:30am 18.3 18.9 16.8 91 0.9 N 9 11 5 6 1009.7 1009.7 4.2
03/07:00am 18.0 19.6 17.0 94 0.6 NW 4 7 2 4 1009.5 1009.5 4.2
03/06:30am 17.4 17.9 16.6 95 0.5 WSW 9 9 5 5 1009.7 1009.7 4.2
03/06:00am 17.2 18.6 16.4 95 0.5 WNW 4 7 2 4 1009.2 1009.2 4.2
03/05:30am 17.2 19.4 16.4 95 0.5 CALM 0 0 0 0 1008.9 1008.9 4.2
03/05:29am 17.3 19.5 16.5 95 0.5 CALM 0 0 0 0 1008.9 1008.9 4.2
03/05:00am 17.8 19.1 17.0 95 0.5 N 6 6 3 3 1009.1 1009.1 4.2
03/04:30am 17.8 18.9 17.0 95 0.5 NNE 7 9 4 5 1009.0 1009.0 4.2
03/04:00am 18.1 18.8 17.1 94 0.6 NW 9 11 5 6 1009.1 1009.1 4.2
03/03:30am 18.3 19.5 17.3 94 0.6 WNW 7 9 4 5 1009.3 1009.3 4.2
03/03:00am 18.3 19.0 17.1 93 0.7 WNW 9 13 5 7 1009.5 1009.5 4.2
03/02:30am 18.3 18.2 17.0 92 0.8 WSW 13 13 7 7 1009.6 1009.6 4.2
03/02:00am 18.6 18.6 17.3 92 0.8 W 13 15 7 8 1009.9 1009.9 4.2
03/01:30am 19.0 19.5 17.5 91 0.9 W 11 13 6 7 1009.9 1009.9 4.2
03/01:00am 19.3 19.9 17.6 90 1.0 WSW 11 13 6 7 1009.9 1009.9 4.2
03/12:30am 20.3 21.1 18.1 87 1.4 NW 11 13 6 7 1010.0 1010.0 4.2
03/12:00am 20.0 20.3 18.0 88 1.2 NNW 13 15 7 8 1010.0 1010.0 4.2
 
Date/Time
EST
Temp
°C
App
Temp
°C
Dew
Point
°C
Rel
Hum
%
Delta-T
°C
Wind Press
QNH
hPa
Press
MSL
hPa
Rain since
9am
mm
Dir  Spd
km/h
Gust
km/h
Spd
kts
Gust
kts
02/11:30pm 20.2 20.5 18.0 87 1.4 NNW 13 17 7 9 1010.2 1010.2 4.2
02/11:00pm 20.3 19.5 18.1 87 1.4 NNW 19 26 10 14 1010.4 1010.4 4.0
02/10:30pm 20.6 19.8 18.5 88 1.3 NNW 20 26 11 14 1010.2 1010.2 4.0
02/10:00pm 20.7 20.5 18.6 88 1.3 NNW 17 22 9 12 1010.3 1010.3 4.0
02/09:30pm 20.5 20.1 18.8 90 1.1 N 19 26 10 14 1010.5 1010.5 4.0
02/09:00pm 20.6 20.0 18.5 88 1.3 NNW 19 26 10 14 1010.5 1010.5 4.0
02/08:30pm 20.9 19.9 18.8 88 1.3 N 22 28 12 15 1010.5 1010.5 4.0
02/08:00pm 21.2 20.8 18.8 86 1.5 N 19 28 10 15 1010.1 1010.1 4.0
02/07:30pm 21.7 21.2 19.1 85 1.6 NNE 20 26 11 14 1010.2 1010.2 4.0
02/07:00pm 21.9 21.8 19.5 86 1.5 NNE 19 26 10 14 1010.4 1010.4 4.0
02/06:30pm 21.6 21.7 19.9 90 1.1 NNE 19 24 10 13 1010.5 1010.5 3.8
02/06:00pm 21.6 21.9 19.7 89 1.2 NNE 17 20 9 11 1010.7 1010.7 3.8
02/05:30pm 21.6 22.6 19.5 88 1.3 NNE 13 17 7 9 1010.9 1010.9 3.4
02/05:00pm 21.7 22.5 19.8 89 1.2 NNE 15 17 8 9 1011.0 1011.0 3.0
02/04:30pm 21.4 22.3 19.3 88 1.3 NNE 13 17 7 9 1011.1 1011.1 2.0
02/04:00pm 21.7 21.9 19.3 86 1.5 NE 17 20 9 11 1011.0 1011.0 0.8

Other formats

Comma delimited format used in spreadsheet applications
http://www.bom.gov.au/fwo/IDN60801/IDN60801.94767.axf

JavaScript Object Notation format (JSON) in row-major order
http://www.bom.gov.au/fwo/IDN60801/IDN60801.94767.json

Data quality

Most of these data are generated automatically and are frequently updated. Quality checks on data are not normally performed. It is possible for incorrect values to appear. Refer to information at About Latest Weather Observations and please check the disclaimer before using these data.